Open Full Screen Window  High Contrast Mode
Wind Gusting 00 knots
05
February 01, 2015 7:06 AM CST
Present Weather: Light Snow
Weather Information
Wind Direction
  110 °
Wind Speed
  05 kt (6 mph)
Wind Gust
  00 kt (0 mph)
Altimeter
30.06 in
Visibility
3 SM
Temperature
01° C
34° F
Dewpoint
01° C
34° F
Humidity
100%
Sky Condition
Overcast @ 1,700 ft
MVFR

METAR KAXV 011306Z AUTO 11005KT 3SM -SN OVC017 01/01 A3006 RMK AO2

*Background is not an actual portrayal of the airport.